Huvudsida
METAR-TAF:

METAR-TAF

Flygplatser :

Roskildes flygplats

Roskilde, Danmark

latitud: 55-35N, longitud: 012-08E, höjd: 44 m

Aktuellt väderrapport

Denna rapport gjordes för 31 minuter sedan, klockan 09:22 UTC
Vind 6 kt från ost, varierande mellan nordost och ost/sydost
Temperatur 18°C
Fuktighet 77%
Tryck 1025 hPa
Sikt 10 km eller mer
Få moln på en höjd av 1600 ft
Brutna moln på en höjd av 2200 ft
Brutna moln på en höjd av 2500 ft

METAR: EKRK 270922Z 08006KT 040V120 9999 FEW016 BKN022 BKN025 18/14 Q1025

Tid: 11:53 (09:53 UTC)


TAF: saknas

Aktuella väderrapporter och prognoser från 4000 flygplatser (METAR- och TAF-rapporter).

De tillgängliga stationerna syns som gula och röda prickar på kartan.

För musen över prickarna för att se namnen på stationerna.

Klicka sedan för att få väderrapporter och prognoser.

För att ändra kartan: Klicka på de gröna knapparna med ett svart kors på för att zooma in; den gröna knappen med ett streck på för att zooma ut; eller på de gröna pilarna för angränsande kartor.


METAR-TAF: